sensor_id;sensor_type;location;lat;lon;timestamp;temperature;humidity
21616;DHT22;10970;48.714;9.584;2023-03-08T00:01:26;4.00;99.90
21616;DHT22;10970;48.714;9.584;2023-03-08T00:03:53;4.00;99.90
21616;DHT22;10970;48.714;9.584;2023-03-08T00:06:20;3.90;99.90
21616;DHT22;10970;48.714;9.584;2023-03-08T00:08:45;3.90;99.90
21616;DHT22;10970;48.714;9.584;2023-03-08T00:11:13;3.80;99.90
21616;DHT22;10970;48.714;9.584;2023-03-08T00:13:39;3.80;99.90
21616;DHT22;10970;48.714;9.584;2023-03-08T00:16:07;3.80;99.90
21616;DHT22;10970;48.714;9.584;2023-03-08T00:18:33;3.80;99.90
21616;DHT22;10970;48.714;9.584;2023-03-08T00:21:00;3.70;99.90
21616;DHT22;10970;48.714;9.584;2023-03-08T00:23:26;3.70;99.90
21616;DHT22;10970;48.714;9.584;2023-03-08T00:25:53;3.70;99.90
21616;DHT22;10970;48.714;9.584;2023-03-08T00:28:19;3.80;99.90
21616;DHT22;10970;48.714;9.584;2023-03-08T00:30:44;3.80;99.90
21616;DHT22;10970;48.714;9.584;2023-03-08T00:33:10;3.90;99.90
21616;DHT22;10970;48.714;9.584;2023-03-08T00:35:36;4.00;99.90
21616;DHT22;10970;48.714;9.584;2023-03-08T00:38:01;4.00;99.90
21616;DHT22;10970;48.714;9.584;2023-03-08T00:40:27;3.90;99.90
21616;DHT22;10970;48.714;9.584;2023-03-08T00:42:52;4.00;99.90
21616;DHT22;10970;48.714;9.584;2023-03-08T00:45:18;4.00;99.90
21616;DHT22;10970;48.714;9.584;2023-03-08T00:47:44;4.00;99.90
21616;DHT22;10970;48.714;9.584;2023-03-08T00:50:09;4.10;99.90
21616;DHT22;10970;48.714;9.584;2023-03-08T00:52:35;4.10;99.90
21616;DHT22;10970;48.714;9.584;2023-03-08T00:55:01;4.20;99.90
21616;DHT22;10970;48.714;9.584;2023-03-08T00:57:26;4.10;99.90
21616;DHT22;10970;48.714;9.584;2023-03-08T00:59:52;4.10;99.90
21616;DHT22;10970;48.714;9.584;2023-03-08T01:02:18;4.10;99.90
21616;DHT22;10970;48.714;9.584;2023-03-08T01:04:44;4.10;99.90
21616;DHT22;10970;48.714;9.584;2023-03-08T01:07:09;4.10;99.90
21616;DHT22;10970;48.714;9.584;2023-03-08T01:09:36;4.10;99.90
21616;DHT22;10970;48.714;9.584;2023-03-08T01:12:01;4.10;99.90
21616;DHT22;10970;48.714;9.584;2023-03-08T01:14:27;4.00;99.90
21616;DHT22;10970;48.714;9.584;2023-03-08T01:16:54;4.00;99.90
21616;DHT22;10970;48.714;9.584;2023-03-08T01:19:20;3.90;99.90
21616;DHT22;10970;48.714;9.584;2023-03-08T01:21:45;3.70;99.90
21616;DHT22;10970;48.714;9.584;2023-03-08T01:24:11;3.70;99.90
21616;DHT22;10970;48.714;9.584;2023-03-08T01:26:36;3.70;99.90
21616;DHT22;10970;48.714;9.584;2023-03-08T01:29:02;3.70;99.90
21616;DHT22;10970;48.714;9.584;2023-03-08T01:31:29;3.70;99.90
21616;DHT22;10970;48.714;9.584;2023-03-08T01:33:56;3.70;99.90
21616;DHT22;10970;48.714;9.584;2023-03-08T01:36:24;3.70;99.90
21616;DHT22;10970;48.714;9.584;2023-03-08T01:38:51;3.80;99.90
21616;DHT22;10970;48.714;9.584;2023-03-08T01:41:25;3.80;99.90
21616;DHT22;10970;48.714;9.584;2023-03-08T01:43:51;3.80;99.90
21616;DHT22;10970;48.714;9.584;2023-03-08T01:46:33;3.80;99.90
21616;DHT22;10970;48.714;9.584;2023-03-08T01:49:01;3.80;99.90
21616;DHT22;10970;48.714;9.584;2023-03-08T01:51:47;3.80;99.90
21616;DHT22;10970;48.714;9.584;2023-03-08T01:54:28;3.80;99.90
21616;DHT22;10970;48.714;9.584;2023-03-08T01:57:03;3.60;99.90
21616;DHT22;10970;48.714;9.584;2023-03-08T01:59:32;3.50;99.90
21616;DHT22;10970;48.714;9.584;2023-03-08T02:01:59;3.50;99.90
21616;DHT22;10970;48.714;9.584;2023-03-08T02:04:25;3.50;99.90
21616;DHT22;10970;48.714;9.584;2023-03-08T02:06:51;3.50;99.90
21616;DHT22;10970;48.714;9.584;2023-03-08T02:09:18;3.40;99.90
21616;DHT22;10970;48.714;9.584;2023-03-08T02:11:45;3.30;99.90
21616;DHT22;10970;48.714;9.584;2023-03-08T02:14:11;3.20;99.90
21616;DHT22;10970;48.714;9.584;2023-03-08T02:16:36;3.00;99.90
21616;DHT22;10970;48.714;9.584;2023-03-08T02:19:07;3.00;99.90
21616;DHT22;10970;48.714;9.584;2023-03-08T02:21:35;3.00;99.90
21616;DHT22;10970;48.714;9.584;2023-03-08T02:24:18;3.00;99.90
21616;DHT22;10970;48.714;9.584;2023-03-08T02:26:44;2.90;99.90
21616;DHT22;10970;48.714;9.584;2023-03-08T02:29:10;2.90;99.90
21616;DHT22;10970;48.714;9.584;2023-03-08T02:31:36;2.80;99.90
21616;DHT22;10970;48.714;9.584;2023-03-08T02:34:02;2.80;99.90
21616;DHT22;10970;48.714;9.584;2023-03-08T02:36:27;2.80;99.90
21616;DHT22;10970;48.714;9.584;2023-03-08T02:38:53;2.80;99.90
21616;DHT22;10970;48.714;9.584;2023-03-08T02:41:18;2.80;99.90
21616;DHT22;10970;48.714;9.584;2023-03-08T02:43:44;2.80;99.90
21616;DHT22;10970;48.714;9.584;2023-03-08T02:46:11;2.80;99.90
21616;DHT22;10970;48.714;9.584;2023-03-08T02:48:37;2.80;99.90
21616;DHT22;10970;48.714;9.584;2023-03-08T02:51:03;2.90;99.90
21616;DHT22;10970;48.714;9.584;2023-03-08T02:53:29;2.90;99.90
21616;DHT22;10970;48.714;9.584;2023-03-08T02:55:55;2.90;99.90
21616;DHT22;10970;48.714;9.584;2023-03-08T02:58:20;2.90;99.90
21616;DHT22;10970;48.714;9.584;2023-03-08T03:00:46;2.90;99.90
21616;DHT22;10970;48.714;9.584;2023-03-08T03:03:12;2.90;99.90
21616;DHT22;10970;48.714;9.584;2023-03-08T03:05:41;2.90;99.90
21616;DHT22;10970;48.714;9.584;2023-03-08T03:08:09;2.90;99.90
21616;DHT22;10970;48.714;9.584;2023-03-08T03:10:36;2.90;99.90
21616;DHT22;10970;48.714;9.584;2023-03-08T03:13:02;2.90;99.90
21616;DHT22;10970;48.714;9.584;2023-03-08T03:15:27;2.90;99.90
21616;DHT22;10970;48.714;9.584;2023-03-08T03:17:53;2.90;99.90
21616;DHT22;10970;48.714;9.584;2023-03-08T03:20:19;2.90;99.90
21616;DHT22;10970;48.714;9.584;2023-03-08T03:22:44;2.90;99.90
21616;DHT22;10970;48.714;9.584;2023-03-08T03:25:11;2.90;99.90
21616;DHT22;10970;48.714;9.584;2023-03-08T03:27:37;2.90;99.90
21616;DHT22;10970;48.714;9.584;2023-03-08T03:30:04;2.90;99.90
21616;DHT22;10970;48.714;9.584;2023-03-08T03:32:30;2.90;99.90
21616;DHT22;10970;48.714;9.584;2023-03-08T03:34:56;2.90;99.90
21616;DHT22;10970;48.714;9.584;2023-03-08T03:37:21;2.90;99.90
21616;DHT22;10970;48.714;9.584;2023-03-08T03:39:47;2.90;99.90
21616;DHT22;10970;48.714;9.584;2023-03-08T03:42:13;2.80;99.90
21616;DHT22;10970;48.714;9.584;2023-03-08T03:44:38;2.80;99.90
21616;DHT22;10970;48.714;9.584;2023-03-08T03:47:04;2.80;99.90
21616;DHT22;10970;48.714;9.584;2023-03-08T03:49:30;2.80;99.90
21616;DHT22;10970;48.714;9.584;2023-03-08T03:51:56;2.80;99.90
21616;DHT22;10970;48.714;9.584;2023-03-08T03:54:21;2.80;99.90
21616;DHT22;10970;48.714;9.584;2023-03-08T03:56:47;2.80;99.90
21616;DHT22;10970;48.714;9.584;2023-03-08T03:59:13;2.80;99.90
21616;DHT22;10970;48.714;9.584;2023-03-08T04:01:38;2.70;99.90
21616;DHT22;10970;48.714;9.584;2023-03-08T04:04:04;2.80;99.90
21616;DHT22;10970;48.714;9.584;2023-03-08T04:06:32;2.70;99.90
21616;DHT22;10970;48.714;9.584;2023-03-08T04:09:03;2.80;99.90
21616;DHT22;10970;48.714;9.584;2023-03-08T04:11:35;2.80;99.90
21616;DHT22;10970;48.714;9.584;2023-03-08T04:14:03;2.80;99.90
21616;DHT22;10970;48.714;9.584;2023-03-08T04:16:31;2.80;99.90
21616;DHT22;10970;48.714;9.584;2023-03-08T04:19:00;2.80;99.90
21616;DHT22;10970;48.714;9.584;2023-03-08T04:21:27;2.80;99.90
21616;DHT22;10970;48.714;9.584;2023-03-08T04:23:53;2.60;99.90
21616;DHT22;10970;48.714;9.584;2023-03-08T04:26:19;2.60;99.90
21616;DHT22;10970;48.714;9.584;2023-03-08T04:28:45;2.50;99.90
21616;DHT22;10970;48.714;9.584;2023-03-08T04:31:26;2.50;99.90
21616;DHT22;10970;48.714;9.584;2023-03-08T04:33:52;2.50;99.90
21616;DHT22;10970;48.714;9.584;2023-03-08T04:36:19;2.50;99.90
21616;DHT22;10970;48.714;9.584;2023-03-08T04:38:45;2.50;99.90
21616;DHT22;10970;48.714;9.584;2023-03-08T04:41:12;2.60;99.90
21616;DHT22;10970;48.714;9.584;2023-03-08T04:43:46;2.40;99.90
21616;DHT22;10970;48.714;9.584;2023-03-08T04:46:13;2.50;99.90
21616;DHT22;10970;48.714;9.584;2023-03-08T04:48:40;2.50;99.90
21616;DHT22;10970;48.714;9.584;2023-03-08T04:51:06;2.60;99.90
21616;DHT22;10970;48.714;9.584;2023-03-08T04:53:34;2.50;99.90
21616;DHT22;10970;48.714;9.584;2023-03-08T04:56:00;2.50;99.90
21616;DHT22;10970;48.714;9.584;2023-03-08T04:58:27;2.50;99.90
21616;DHT22;10970;48.714;9.584;2023-03-08T05:00:53;2.50;99.90
21616;DHT22;10970;48.714;9.584;2023-03-08T05:03:19;2.60;99.90
21616;DHT22;10970;48.714;9.584;2023-03-08T05:05:53;2.60;99.90
21616;DHT22;10970;48.714;9.584;2023-03-08T05:08:20;2.60;99.90
21616;DHT22;10970;48.714;9.584;2023-03-08T05:10:53;2.60;99.90
21616;DHT22;10970;48.714;9.584;2023-03-08T05:13:19;2.70;99.90
21616;DHT22;10970;48.714;9.584;2023-03-08T05:15:45;2.60;99.90
21616;DHT22;10970;48.714;9.584;2023-03-08T05:18:11;2.60;99.90
21616;DHT22;10970;48.714;9.584;2023-03-08T05:20:37;2.70;99.90
21616;DHT22;10970;48.714;9.584;2023-03-08T05:23:03;2.70;99.90
21616;DHT22;10970;48.714;9.584;2023-03-08T05:25:29;2.70;99.90
21616;DHT22;10970;48.714;9.584;2023-03-08T05:27:55;2.70;99.90
21616;DHT22;10970;48.714;9.584;2023-03-08T05:30:21;2.80;99.90
21616;DHT22;10970;48.714;9.584;2023-03-08T05:32:47;2.70;99.90
21616;DHT22;10970;48.714;9.584;2023-03-08T05:35:12;2.80;99.90
21616;DHT22;10970;48.714;9.584;2023-03-08T05:37:38;2.80;99.90
21616;DHT22;10970;48.714;9.584;2023-03-08T05:40:04;2.80;99.90
21616;DHT22;10970;48.714;9.584;2023-03-08T05:42:32;2.80;99.90
21616;DHT22;10970;48.714;9.584;2023-03-08T05:44:58;2.90;99.90
21616;DHT22;10970;48.714;9.584;2023-03-08T05:47:24;2.80;99.90
21616;DHT22;10970;48.714;9.584;2023-03-08T05:49:50;2.80;99.90
21616;DHT22;10970;48.714;9.584;2023-03-08T05:52:16;2.80;99.90
21616;DHT22;10970;48.714;9.584;2023-03-08T05:54:41;2.80;99.90
21616;DHT22;10970;48.714;9.584;2023-03-08T05:57:07;2.80;99.90
21616;DHT22;10970;48.714;9.584;2023-03-08T05:59:32;2.80;99.90
21616;DHT22;10970;48.714;9.584;2023-03-08T06:01:58;2.90;99.90
21616;DHT22;10970;48.714;9.584;2023-03-08T06:04:24;2.90;99.90
21616;DHT22;10970;48.714;9.584;2023-03-08T06:06:49;3.00;99.90
21616;DHT22;10970;48.714;9.584;2023-03-08T06:09:15;3.10;99.90
21616;DHT22;10970;48.714;9.584;2023-03-08T06:11:41;3.20;99.90
21616;DHT22;10970;48.714;9.584;2023-03-08T06:14:07;3.30;99.90
21616;DHT22;10970;48.714;9.584;2023-03-08T06:16:32;3.40;99.90
21616;DHT22;10970;48.714;9.584;2023-03-08T06:18:58;3.40;99.90
21616;DHT22;10970;48.714;9.584;2023-03-08T06:21:25;3.40;99.90
21616;DHT22;10970;48.714;9.584;2023-03-08T06:23:51;3.40;99.90
21616;DHT22;10970;48.714;9.584;2023-03-08T06:26:17;3.40;99.90
21616;DHT22;10970;48.714;9.584;2023-03-08T06:28:43;3.40;99.90
21616;DHT22;10970;48.714;9.584;2023-03-08T06:31:16;3.40;99.90
21616;DHT22;10970;48.714;9.584;2023-03-08T06:33:42;3.40;99.90
21616;DHT22;10970;48.714;9.584;2023-03-08T06:36:11;3.40;99.90
21616;DHT22;10970;48.714;9.584;2023-03-08T06:38:38;3.40;99.90
21616;DHT22;10970;48.714;9.584;2023-03-08T06:41:04;3.40;99.90
21616;DHT22;10970;48.714;9.584;2023-03-08T06:43:31;3.50;99.90
21616;DHT22;10970;48.714;9.584;2023-03-08T06:45:56;3.50;99.90
21616;DHT22;10970;48.714;9.584;2023-03-08T06:48:23;3.60;99.90
21616;DHT22;10970;48.714;9.584;2023-03-08T06:50:49;3.70;99.90
21616;DHT22;10970;48.714;9.584;2023-03-08T06:53:14;3.80;99.90
21616;DHT22;10970;48.714;9.584;2023-03-08T06:55:41;3.90;99.90
21616;DHT22;10970;48.714;9.584;2023-03-08T06:58:07;3.90;99.90
21616;DHT22;10970;48.714;9.584;2023-03-08T07:00:33;3.90;99.90
21616;DHT22;10970;48.714;9.584;2023-03-08T07:02:59;4.00;99.90
21616;DHT22;10970;48.714;9.584;2023-03-08T07:05:25;4.10;99.90
21616;DHT22;10970;48.714;9.584;2023-03-08T07:07:51;4.20;99.90
21616;DHT22;10970;48.714;9.584;2023-03-08T07:10:18;4.40;99.90
21616;DHT22;10970;48.714;9.584;2023-03-08T07:12:46;4.40;99.90
21616;DHT22;10970;48.714;9.584;2023-03-08T07:15:14;4.40;99.90
21616;DHT22;10970;48.714;9.584;2023-03-08T07:17:41;4.50;99.90
21616;DHT22;10970;48.714;9.584;2023-03-08T07:20:11;4.60;99.90
21616;DHT22;10970;48.714;9.584;2023-03-08T07:22:37;4.70;99.90
21616;DHT22;10970;48.714;9.584;2023-03-08T07:25:03;4.80;99.90
21616;DHT22;10970;48.714;9.584;2023-03-08T07:27:29;4.90;99.90
21616;DHT22;10970;48.714;9.584;2023-03-08T07:29:55;5.00;99.90
21616;DHT22;10970;48.714;9.584;2023-03-08T07:32:20;5.10;99.90
21616;DHT22;10970;48.714;9.584;2023-03-08T07:34:48;5.10;99.90
21616;DHT22;10970;48.714;9.584;2023-03-08T07:37:16;5.20;99.90
21616;DHT22;10970;48.714;9.584;2023-03-08T07:39:42;5.30;99.90
21616;DHT22;10970;48.714;9.584;2023-03-08T07:42:09;5.40;99.90
21616;DHT22;10970;48.714;9.584;2023-03-08T07:44:35;5.60;99.90
21616;DHT22;10970;48.714;9.584;2023-03-08T07:47:07;5.70;99.90
21616;DHT22;10970;48.714;9.584;2023-03-08T07:49:33;5.80;99.90
21616;DHT22;10970;48.714;9.584;2023-03-08T07:51:59;5.90;99.90
21616;DHT22;10970;48.714;9.584;2023-03-08T07:54:25;6.00;99.90
21616;DHT22;10970;48.714;9.584;2023-03-08T07:56:51;5.90;99.90
21616;DHT22;10970;48.714;9.584;2023-03-08T07:59:17;6.00;99.90
21616;DHT22;10970;48.714;9.584;2023-03-08T08:01:43;6.10;99.90
21616;DHT22;10970;48.714;9.584;2023-03-08T08:04:09;6.00;99.90
21616;DHT22;10970;48.714;9.584;2023-03-08T08:06:37;5.90;99.90
21616;DHT22;10970;48.714;9.584;2023-03-08T08:09:04;5.90;99.90
21616;DHT22;10970;48.714;9.584;2023-03-08T08:11:30;5.90;99.90
21616;DHT22;10970;48.714;9.584;2023-03-08T08:13:56;5.90;99.90
21616;DHT22;10970;48.714;9.584;2023-03-08T08:16:22;5.90;99.90
21616;DHT22;10970;48.714;9.584;2023-03-08T08:18:50;5.90;99.90
21616;DHT22;10970;48.714;9.584;2023-03-08T08:21:16;6.00;99.90
21616;DHT22;10970;48.714;9.584;2023-03-08T08:23:42;6.00;99.90
21616;DHT22;10970;48.714;9.584;2023-03-08T08:26:20;6.00;99.90
21616;DHT22;10970;48.714;9.584;2023-03-08T08:28:49;6.00;99.90
21616;DHT22;10970;48.714;9.584;2023-03-08T08:31:19;6.20;99.90
21616;DHT22;10970;48.714;9.584;2023-03-08T08:33:45;6.30;99.90
21616;DHT22;10970;48.714;9.584;2023-03-08T08:36:16;6.40;99.90
21616;DHT22;10970;48.714;9.584;2023-03-08T08:38:42;6.30;99.90
21616;DHT22;10970;48.714;9.584;2023-03-08T08:41:11;6.40;99.90
21616;DHT22;10970;48.714;9.584;2023-03-08T08:43:37;6.50;99.90
21616;DHT22;10970;48.714;9.584;2023-03-08T08:46:04;6.40;99.90
21616;DHT22;10970;48.714;9.584;2023-03-08T08:48:30;6.30;99.90
21616;DHT22;10970;48.714;9.584;2023-03-08T08:50:58;6.20;99.90
21616;DHT22;10970;48.714;9.584;2023-03-08T08:53:24;6.20;99.90
21616;DHT22;10970;48.714;9.584;2023-03-08T08:55:50;6.20;99.90
21616;DHT22;10970;48.714;9.584;2023-03-08T08:58:16;6.20;99.90
21616;DHT22;10970;48.714;9.584;2023-03-08T09:00:42;6.10;99.90
21616;DHT22;10970;48.714;9.584;2023-03-08T09:03:08;6.10;99.90
21616;DHT22;10970;48.714;9.584;2023-03-08T09:05:38;6.10;99.90
21616;DHT22;10970;48.714;9.584;2023-03-08T09:08:05;6.30;99.90
21616;DHT22;10970;48.714;9.584;2023-03-08T09:10:33;6.30;99.90
21616;DHT22;10970;48.714;9.584;2023-03-08T09:12:59;6.40;99.90
21616;DHT22;10970;48.714;9.584;2023-03-08T09:15:25;6.50;99.90
21616;DHT22;10970;48.714;9.584;2023-03-08T09:17:51;6.60;99.90
21616;DHT22;10970;48.714;9.584;2023-03-08T09:20:18;6.80;99.90
21616;DHT22;10970;48.714;9.584;2023-03-08T09:22:44;6.70;99.90
21616;DHT22;10970;48.714;9.584;2023-03-08T09:25:11;6.70;99.90
21616;DHT22;10970;48.714;9.584;2023-03-08T09:27:38;6.80;99.90
21616;DHT22;10970;48.714;9.584;2023-03-08T09:30:07;6.80;99.90
21616;DHT22;10970;48.714;9.584;2023-03-08T09:32:33;7.00;99.90
21616;DHT22;10970;48.714;9.584;2023-03-08T09:34:59;7.20;99.90
21616;DHT22;10970;48.714;9.584;2023-03-08T09:37:25;7.20;99.90
21616;DHT22;10970;48.714;9.584;2023-03-08T09:39:51;7.40;99.90
21616;DHT22;10970;48.714;9.584;2023-03-08T09:42:20;7.40;99.90
21616;DHT22;10970;48.714;9.584;2023-03-08T09:55:21;7.40;99.90
21616;DHT22;10970;48.714;9.584;2023-03-08T09:57:56;7.50;99.90
21616;DHT22;10970;48.714;9.584;2023-03-08T10:00:31;7.50;99.90
21616;DHT22;10970;48.714;9.584;2023-03-08T10:05:59;7.70;99.90
21616;DHT22;10970;48.714;9.584;2023-03-08T10:08:34;7.70;99.90
21616;DHT22;10970;48.714;9.584;2023-03-08T10:11:04;7.80;99.90
21616;DHT22;10970;48.714;9.584;2023-03-08T10:13:39;7.80;99.90
21616;DHT22;10970;48.714;9.584;2023-03-08T10:21:17;8.00;99.90
21616;DHT22;10970;48.714;9.584;2023-03-08T10:23:50;8.00;99.90
21616;DHT22;10970;48.714;9.584;2023-03-08T10:26:18;8.10;99.90
21616;DHT22;10970;48.714;9.584;2023-03-08T10:28:43;8.20;99.90
21616;DHT22;10970;48.714;9.584;2023-03-08T10:31:22;8.20;99.90
21616;DHT22;10970;48.714;9.584;2023-03-08T10:34:11;8.20;99.90
21616;DHT22;10970;48.714;9.584;2023-03-08T10:39:17;8.30;99.90
21616;DHT22;10970;48.714;9.584;2023-03-08T10:41:55;8.30;99.90
21616;DHT22;10970;48.714;9.584;2023-03-08T10:44:35;8.30;99.90
21616;DHT22;10970;48.714;9.584;2023-03-08T10:47:28;8.30;99.90
21616;DHT22;10970;48.714;9.584;2023-03-08T10:52:31;8.60;99.90
21616;DHT22;10970;48.714;9.584;2023-03-08T10:55:17;8.70;99.90
21616;DHT22;10970;48.714;9.584;2023-03-08T10:57:57;8.70;99.90
21616;DHT22;10970;48.714;9.584;2023-03-08T11:00:33;8.70;99.90
21616;DHT22;10970;48.714;9.584;2023-03-08T11:03:10;8.90;99.90
21616;DHT22;10970;48.714;9.584;2023-03-08T11:05:37;9.10;99.90
21616;DHT22;10970;48.714;9.584;2023-03-08T11:08:03;9.30;99.90
21616;DHT22;10970;48.714;9.584;2023-03-08T11:10:29;9.60;99.90
21616;DHT22;10970;48.714;9.584;2023-03-08T11:13:21;9.80;99.90
21616;DHT22;10970;48.714;9.584;2023-03-08T11:21:12;10.10;99.90
21616;DHT22;10970;48.714;9.584;2023-03-08T11:23:59;10.20;99.90
21616;DHT22;10970;48.714;9.584;2023-03-08T11:26:39;10.60;99.90
21616;DHT22;10970;48.714;9.584;2023-03-08T11:40:54;11.50;99.90
21616;DHT22;10970;48.714;9.584;2023-03-08T11:57:13;11.20;99.90
21616;DHT22;10970;48.714;9.584;2023-03-08T11:59:55;11.20;99.90
21616;DHT22;10970;48.714;9.584;2023-03-08T12:02:28;11.30;99.90
21616;DHT22;10970;48.714;9.584;2023-03-08T12:05:08;11.30;99.90
21616;DHT22;10970;48.714;9.584;2023-03-08T12:07:42;11.30;99.90
21616;DHT22;10970;48.714;9.584;2023-03-08T12:10:20;11.30;99.90
21616;DHT22;10970;48.714;9.584;2023-03-08T12:18:45;11.40;99.90
21616;DHT22;10970;48.714;9.584;2023-03-08T12:24:14;11.50;99.90
21616;DHT22;10970;48.714;9.584;2023-03-08T12:26:39;11.50;99.90
21616;DHT22;10970;48.714;9.584;2023-03-08T12:29:20;11.60;99.90
21616;DHT22;10970;48.714;9.584;2023-03-08T12:31:49;11.70;99.90
21616;DHT22;10970;48.714;9.584;2023-03-08T12:34:37;11.70;99.90
21616;DHT22;10970;48.714;9.584;2023-03-08T12:37:03;11.80;99.90
21616;DHT22;10970;48.714;9.584;2023-03-08T12:39:30;11.90;99.90
21616;DHT22;10970;48.714;9.584;2023-03-08T12:42:13;11.90;99.90
21616;DHT22;10970;48.714;9.584;2023-03-08T12:44:39;11.90;99.90
21616;DHT22;10970;48.714;9.584;2023-03-08T12:49:39;12.00;99.90
21616;DHT22;10970;48.714;9.584;2023-03-08T12:54:56;12.20;99.90
21616;DHT22;10970;48.714;9.584;2023-03-08T12:57:30;12.30;99.90
21616;DHT22;10970;48.714;9.584;2023-03-08T13:00:46;12.40;99.90
21616;DHT22;10970;48.714;9.584;2023-03-08T13:03:01;12.50;99.90
21616;DHT22;10970;48.714;9.584;2023-03-08T13:05:32;12.70;99.90
21616;DHT22;10970;48.714;9.584;2023-03-08T13:08:30;12.80;99.90
21616;DHT22;10970;48.714;9.584;2023-03-08T13:11:11;12.70;99.90
21616;DHT22;10970;48.714;9.584;2023-03-08T13:18:41;12.90;99.90
21616;DHT22;10970;48.714;9.584;2023-03-08T13:23:49;12.80;99.90
21616;DHT22;10970;48.714;9.584;2023-03-08T13:26:31;12.80;99.90
21616;DHT22;10970;48.714;9.584;2023-03-08T13:28:59;12.80;99.90
21616;DHT22;10970;48.714;9.584;2023-03-08T13:31:28;12.80;99.90
21616;DHT22;10970;48.714;9.584;2023-03-08T13:33:56;12.70;99.90
21616;DHT22;10970;48.714;9.584;2023-03-08T13:36:27;12.70;99.90
21616;DHT22;10970;48.714;9.584;2023-03-08T13:39:05;12.60;99.90
21616;DHT22;10970;48.714;9.584;2023-03-08T13:41:39;12.60;99.90
21616;DHT22;10970;48.714;9.584;2023-03-08T13:44:13;12.50;99.90
21616;DHT22;10970;48.714;9.584;2023-03-08T13:46:39;12.50;99.90
21616;DHT22;10970;48.714;9.584;2023-03-08T13:49:14;12.50;99.90
21616;DHT22;10970;48.714;9.584;2023-03-08T13:51:42;12.50;99.90
21616;DHT22;10970;48.714;9.584;2023-03-08T13:54:15;12.50;99.90
21616;DHT22;10970;48.714;9.584;2023-03-08T13:56:42;12.50;99.90
21616;DHT22;10970;48.714;9.584;2023-03-08T13:59:20;12.50;99.90
21616;DHT22;10970;48.714;9.584;2023-03-08T14:01:48;12.40;99.90
21616;DHT22;10970;48.714;9.584;2023-03-08T14:04:26;12.50;99.90
21616;DHT22;10970;48.714;9.584;2023-03-08T14:06:59;12.60;99.90
21616;DHT22;10970;48.714;9.584;2023-03-08T14:09:26;12.60;99.90
21616;DHT22;10970;48.714;9.584;2023-03-08T14:12:01;12.70;99.90
21616;DHT22;10970;48.714;9.584;2023-03-08T14:14:34;12.70;99.90
21616;DHT22;10970;48.714;9.584;2023-03-08T14:17:01;12.70;99.90
21616;DHT22;10970;48.714;9.584;2023-03-08T14:19:32;12.60;99.90
21616;DHT22;10970;48.714;9.584;2023-03-08T14:22:09;12.70;99.90
21616;DHT22;10970;48.714;9.584;2023-03-08T14:24:36;12.70;99.90
21616;DHT22;10970;48.714;9.584;2023-03-08T14:27:05;12.70;99.90
21616;DHT22;10970;48.714;9.584;2023-03-08T14:29:35;12.70;99.90
21616;DHT22;10970;48.714;9.584;2023-03-08T14:37:04;12.50;99.90
21616;DHT22;10970;48.714;9.584;2023-03-08T14:39:32;12.50;99.90
21616;DHT22;10970;48.714;9.584;2023-03-08T14:42:21;12.50;99.90
21616;DHT22;10970;48.714;9.584;2023-03-08T14:44:56;12.50;99.90
21616;DHT22;10970;48.714;9.584;2023-03-08T14:47:26;12.60;99.90
21616;DHT22;10970;48.714;9.584;2023-03-08T14:52:34;12.60;99.90
21616;DHT22;10970;48.714;9.584;2023-03-08T14:55:01;12.70;99.90
21616;DHT22;10970;48.714;9.584;2023-03-08T14:57:28;12.70;99.90
21616;DHT22;10970;48.714;9.584;2023-03-08T15:00:12;12.70;99.90
21616;DHT22;10970;48.714;9.584;2023-03-08T15:02:40;12.70;99.90
21616;DHT22;10970;48.714;9.584;2023-03-08T15:05:20;12.70;99.90
21616;DHT22;10970;48.714;9.584;2023-03-08T15:07:47;12.80;99.90
21616;DHT22;10970;48.714;9.584;2023-03-08T15:10:26;12.90;99.90
21616;DHT22;10970;48.714;9.584;2023-03-08T15:12:54;12.90;99.90
21616;DHT22;10970;48.714;9.584;2023-03-08T15:15:20;13.00;99.90
21616;DHT22;10970;48.714;9.584;2023-03-08T15:17:46;13.00;99.90
21616;DHT22;10970;48.714;9.584;2023-03-08T15:20:12;13.00;99.90
21616;DHT22;10970;48.714;9.584;2023-03-08T15:22:47;13.00;99.90
21616;DHT22;10970;48.714;9.584;2023-03-08T15:25:27;13.00;99.90
21616;DHT22;10970;48.714;9.584;2023-03-08T15:27:54;13.00;99.90
21616;DHT22;10970;48.714;9.584;2023-03-08T15:30:22;13.00;99.90
21616;DHT22;10970;48.714;9.584;2023-03-08T15:32:49;13.00;99.90
21616;DHT22;10970;48.714;9.584;2023-03-08T15:35:15;12.90;99.90
21616;DHT22;10970;48.714;9.584;2023-03-08T15:37:41;12.90;99.90
21616;DHT22;10970;48.714;9.584;2023-03-08T15:40:15;12.80;99.90
21616;DHT22;10970;48.714;9.584;2023-03-08T15:42:41;12.80;99.90
21616;DHT22;10970;48.714;9.584;2023-03-08T15:45:07;12.80;99.90
21616;DHT22;10970;48.714;9.584;2023-03-08T15:47:33;12.70;99.90
21616;DHT22;10970;48.714;9.584;2023-03-08T15:49:59;12.60;99.90
21616;DHT22;10970;48.714;9.584;2023-03-08T15:52:27;12.60;99.90
21616;DHT22;10970;48.714;9.584;2023-03-08T15:54:53;12.60;99.90
21616;DHT22;10970;48.714;9.584;2023-03-08T15:57:19;12.60;99.90
21616;DHT22;10970;48.714;9.584;2023-03-08T15:59:44;12.70;99.90
21616;DHT22;10970;48.714;9.584;2023-03-08T16:02:15;12.70;99.90
21616;DHT22;10970;48.714;9.584;2023-03-08T16:04:42;12.70;99.90
21616;DHT22;10970;48.714;9.584;2023-03-08T16:07:14;12.70;99.90
21616;DHT22;10970;48.714;9.584;2023-03-08T16:09:40;12.60;99.90
21616;DHT22;10970;48.714;9.584;2023-03-08T16:12:06;12.60;99.90
21616;DHT22;10970;48.714;9.584;2023-03-08T16:14:33;12.60;99.90
21616;DHT22;10970;48.714;9.584;2023-03-08T16:16:59;12.60;99.90
21616;DHT22;10970;48.714;9.584;2023-03-08T16:19:24;12.60;99.90
21616;DHT22;10970;48.714;9.584;2023-03-08T16:21:50;12.60;99.90
21616;DHT22;10970;48.714;9.584;2023-03-08T16:24:16;12.60;99.90
21616;DHT22;10970;48.714;9.584;2023-03-08T16:26:42;12.50;99.90
21616;DHT22;10970;48.714;9.584;2023-03-08T16:29:08;12.50;99.90
21616;DHT22;10970;48.714;9.584;2023-03-08T16:31:34;12.50;99.90
21616;DHT22;10970;48.714;9.584;2023-03-08T16:34:04;12.50;99.90
21616;DHT22;10970;48.714;9.584;2023-03-08T16:36:30;12.50;99.90
21616;DHT22;10970;48.714;9.584;2023-03-08T16:38:56;12.50;99.90
21616;DHT22;10970;48.714;9.584;2023-03-08T16:41:22;12.40;99.90
21616;DHT22;10970;48.714;9.584;2023-03-08T16:43:50;12.30;99.90
21616;DHT22;10970;48.714;9.584;2023-03-08T16:46:18;12.30;99.90
21616;DHT22;10970;48.714;9.584;2023-03-08T16:48:45;12.30;99.90
21616;DHT22;10970;48.714;9.584;2023-03-08T16:51:14;12.30;99.90
21616;DHT22;10970;48.714;9.584;2023-03-08T16:53:40;12.30;99.90
21616;DHT22;10970;48.714;9.584;2023-03-08T16:56:06;12.30;99.90
21616;DHT22;10970;48.714;9.584;2023-03-08T16:58:32;12.20;99.90
21616;DHT22;10970;48.714;9.584;2023-03-08T17:00:58;12.10;99.90
21616;DHT22;10970;48.714;9.584;2023-03-08T17:03:23;11.80;99.90
21616;DHT22;10970;48.714;9.584;2023-03-08T17:05:49;11.60;99.90
21616;DHT22;10970;48.714;9.584;2023-03-08T17:08:15;11.40;99.90
21616;DHT22;10970;48.714;9.584;2023-03-08T17:10:43;11.40;99.90
21616;DHT22;10970;48.714;9.584;2023-03-08T17:13:10;11.30;99.90
21616;DHT22;10970;48.714;9.584;2023-03-08T17:15:43;11.30;99.90